createdAt,value
2018-06-20T00:01:42.081Z,395.87
2018-06-20T00:04:10.568Z,392.53
2018-06-20T00:06:39.165Z,383.80
2018-06-20T00:09:10.049Z,391.10
2018-06-20T00:11:38.604Z,354.13
2018-06-20T00:14:07.146Z,359.23
2018-06-20T00:16:35.717Z,359.20
2018-06-20T00:19:04.260Z,343.23
2018-06-20T00:21:32.753Z,327.50
2018-06-20T00:24:01.253Z,353.87
2018-06-20T00:26:29.735Z,332.20
2018-06-20T00:28:58.249Z,319.53
2018-06-20T00:31:26.771Z,302.27
2018-06-20T00:33:55.260Z,250.17
2018-06-20T00:36:23.803Z,252.03
2018-06-20T00:38:52.301Z,238.43
2018-06-20T00:41:20.820Z,241.37
2018-06-20T00:43:49.325Z,260.20
2018-06-20T00:46:17.548Z,260.00
2018-06-20T00:48:46.116Z,262.97
2018-06-20T00:51:14.691Z,253.07
2018-06-20T00:53:43.523Z,264.90
2018-06-20T00:56:21.564Z,267.67
2018-06-20T00:58:50.080Z,259.17
2018-06-20T01:01:18.819Z,265.50
2018-06-20T01:03:47.362Z,249.37
2018-06-20T01:06:15.850Z,265.93
2018-06-20T01:08:44.363Z,252.03
2018-06-20T01:11:13.564Z,241.53
2018-06-20T01:13:42.214Z,258.07
2018-06-20T01:16:10.704Z,256.90
2018-06-20T01:18:39.266Z,263.07
2018-06-20T01:21:07.788Z,269.13
2018-06-20T01:23:36.315Z,262.70
2018-06-20T01:26:04.892Z,261.63
2018-06-20T01:28:40.092Z,258.80
2018-06-20T01:31:08.905Z,241.33
2018-06-20T01:33:37.441Z,266.00
2018-06-20T01:36:06.168Z,267.13
2018-06-20T01:38:34.648Z,270.87
2018-06-20T01:41:03.173Z,267.97
2018-06-20T01:43:31.659Z,263.63
2018-06-20T01:46:00.157Z,385.30
2018-06-20T01:48:28.659Z,394.23
2018-06-20T01:50:58.099Z,401.17
2018-06-20T01:53:26.676Z,400.53
2018-06-20T01:55:55.715Z,422.27
2018-06-20T01:58:24.471Z,400.50
2018-06-20T02:00:53.004Z,413.00
2018-06-20T02:03:21.485Z,395.97
2018-06-20T02:05:50.062Z,387.53
2018-06-20T02:08:18.542Z,384.93
2018-06-20T02:10:47.027Z,357.00
2018-06-20T02:13:15.551Z,345.30
2018-06-20T02:15:44.069Z,242.23
2018-06-20T02:18:12.647Z,192.63
2018-06-20T02:20:44.720Z,191.50
2018-06-20T02:23:15.180Z,212.00
2018-06-20T02:25:43.434Z,189.53
2018-06-20T02:28:12.951Z,302.27
2018-06-20T02:30:41.473Z,356.67
2018-06-20T02:33:09.998Z,520.57
2018-06-20T02:35:38.562Z,632.90
2018-06-20T02:38:07.049Z,604.60
2018-06-20T02:40:35.638Z,641.40
2018-06-20T02:43:04.177Z,641.30
2018-06-20T02:45:32.706Z,369.43
2018-06-20T02:48:01.192Z,299.20
2018-06-20T02:50:29.661Z,240.23
2018-06-20T02:52:58.207Z,225.13
2018-06-20T02:55:26.704Z,210.63
2018-06-20T02:57:55.244Z,236.43
2018-06-20T03:00:23.772Z,256.27
2018-06-20T03:02:52.311Z,252.40
2018-06-20T03:05:20.790Z,219.27
2018-06-20T03:07:49.344Z,249.07
2018-06-20T03:10:17.860Z,221.73
2018-06-20T03:12:46.400Z,206.47
2018-06-20T03:15:14.880Z,211.50
2018-06-20T03:17:43.103Z,201.30
2018-06-20T03:20:11.628Z,202.60
2018-06-20T03:22:40.119Z,206.60
2018-06-20T03:25:08.658Z,188.40
2018-06-20T03:27:37.130Z,192.37
2018-06-20T03:30:05.737Z,170.07
2018-06-20T03:32:34.282Z,166.40
2018-06-20T03:35:02.818Z,166.80
2018-06-20T03:37:31.600Z,177.73
2018-06-20T03:40:00.112Z,203.37
2018-06-20T03:42:28.684Z,202.23
2018-06-20T03:44:57.198Z,202.80
2018-06-20T03:47:25.704Z,235.00
2018-06-20T03:49:54.245Z,258.70
2018-06-20T03:52:23.083Z,255.70
2018-06-20T03:54:51.598Z,246.77
2018-06-20T03:57:20.333Z,272.87
2018-06-20T03:59:49.068Z,248.77
2018-06-20T04:02:17.298Z,242.40
2018-06-20T04:04:45.775Z,258.73
2018-06-20T04:07:14.309Z,249.67
2018-06-20T04:09:42.789Z,252.47
2018-06-20T04:12:11.301Z,218.73
2018-06-20T04:14:39.519Z,208.37
2018-06-20T04:17:10.877Z,257.33
2018-06-20T04:19:39.352Z,213.00
2018-06-20T04:22:07.898Z,221.73
2018-06-20T04:24:36.433Z,224.23
2018-06-20T04:27:05.003Z,239.10
2018-06-20T04:29:33.561Z,234.63
2018-06-20T04:32:02.043Z,231.13
2018-06-20T04:34:30.823Z,216.87
2018-06-20T04:36:59.316Z,224.27
2018-06-20T04:39:27.797Z,232.57
2018-06-20T04:41:56.320Z,232.00
2018-06-20T04:44:24.800Z,221.23
2018-06-20T04:46:53.317Z,217.13
2018-06-20T04:49:21.797Z,238.23
2018-06-20T04:51:50.313Z,219.97
2018-06-20T04:54:18.813Z,251.90
2018-06-20T04:56:47.332Z,259.53
2018-06-20T04:59:15.840Z,253.97
2018-06-20T05:01:44.345Z,228.30
2018-06-20T05:04:12.939Z,235.07
2018-06-20T05:06:41.395Z,223.77
2018-06-20T05:09:15.283Z,212.10
2018-06-20T05:11:43.767Z,206.77
2018-06-20T05:14:11.974Z,200.93
2018-06-20T05:16:40.508Z,204.73
2018-06-20T05:19:09.033Z,218.47
2018-06-20T05:21:38.030Z,220.63
2018-06-20T05:24:06.740Z,242.83
2018-06-20T05:26:35.552Z,271.87
2018-06-20T05:29:04.147Z,265.93
2018-06-20T05:31:32.681Z,279.30
2018-06-20T05:34:01.204Z,276.43
2018-06-20T05:36:29.681Z,231.57
2018-06-20T05:38:58.155Z,188.50
2018-06-20T05:41:26.796Z,354.43
2018-06-20T05:43:55.317Z,518.63
2018-06-20T05:46:23.804Z,462.83
2018-06-20T05:48:52.348Z,470.27
2018-06-20T05:51:20.859Z,372.40
2018-06-20T05:53:49.410Z,380.40
2018-06-20T05:56:17.908Z,404.50
2018-06-20T05:58:46.427Z,399.77
2018-06-20T06:01:15.010Z,384.83
2018-06-20T06:03:43.553Z,397.00
2018-06-20T06:06:15.596Z,416.17
2018-06-20T06:08:44.824Z,510.10
2018-06-20T06:11:13.327Z,534.00
2018-06-20T06:13:41.887Z,571.20
2018-06-20T06:16:10.435Z,593.70
2018-06-20T06:18:39.005Z,572.63
2018-06-20T06:21:07.829Z,600.80
2018-06-20T06:23:36.380Z,541.90
2018-06-20T06:26:05.011Z,597.00
2018-06-20T06:28:33.518Z,641.33
2018-06-20T06:31:02.092Z,591.57
2018-06-20T06:33:30.588Z,442.47
2018-06-20T06:35:59.143Z,369.67
2018-06-20T06:38:27.653Z,291.57
2018-06-20T06:40:56.212Z,305.20
2018-06-20T06:43:24.788Z,313.30
2018-06-20T06:45:53.302Z,299.70
2018-06-20T06:48:21.843Z,277.37
2018-06-20T06:50:50.437Z,248.40
2018-06-20T06:53:19.038Z,281.83
2018-06-20T06:55:47.576Z,294.83
2018-06-20T06:58:16.114Z,276.63
2018-06-20T07:00:44.613Z,327.57
2018-06-20T07:03:13.179Z,329.60
2018-06-20T07:05:41.812Z,331.47
2018-06-20T07:08:10.323Z,324.07
2018-06-20T07:10:38.891Z,307.47
2018-06-20T07:13:07.655Z,320.70
2018-06-20T07:15:36.240Z,318.13
2018-06-20T07:18:04.736Z,355.40
2018-06-20T07:20:33.282Z,349.33
2018-06-20T07:23:01.796Z,363.27
2018-06-20T07:25:30.341Z,314.17
2018-06-20T07:27:58.828Z,200.60
2018-06-20T07:30:27.368Z,195.17
2018-06-20T07:32:55.840Z,208.60
2018-06-20T07:35:24.107Z,181.17
2018-06-20T07:37:52.626Z,176.23
2018-06-20T07:40:21.113Z,242.87
2018-06-20T07:42:49.640Z,173.33
2018-06-20T07:45:18.196Z,169.60
2018-06-20T07:47:46.710Z,198.30
2018-06-20T07:50:15.255Z,184.40
2018-06-20T07:52:43.744Z,218.37
2018-06-20T07:55:12.251Z,201.77
2018-06-20T07:57:40.972Z,123.60
2018-06-20T08:00:14.624Z,124.77
2018-06-20T08:02:59.557Z,122.53
2018-06-20T08:05:33.387Z,122.90
2018-06-20T08:08:07.167Z,136.90
2018-06-20T08:10:40.884Z,142.67
2018-06-20T08:13:14.768Z,154.87
2018-06-20T08:15:48.409Z,136.37
2018-06-20T08:18:22.095Z,128.47
2018-06-20T08:20:50.630Z,106.53
2018-06-20T08:23:19.144Z,133.17
2018-06-20T08:25:48.055Z,122.77
2018-06-20T08:28:16.568Z,91.17
2018-06-20T08:30:45.062Z,92.30
2018-06-20T08:33:13.596Z,94.17
2018-06-20T08:35:42.084Z,68.97
2018-06-20T08:38:10.591Z,47.53
2018-06-20T08:40:39.096Z,39.90
2018-06-20T08:43:08.785Z,42.60
2018-06-20T08:45:37.344Z,40.20
2018-06-20T08:48:09.804Z,44.63
2018-06-20T08:50:38.335Z,38.07
2018-06-20T08:53:07.353Z,36.83
2018-06-20T08:55:35.837Z,42.63
2018-06-20T08:58:04.376Z,57.93
2018-06-20T09:00:38.289Z,60.23
2018-06-20T09:03:11.925Z,61.13
2018-06-20T09:05:49.613Z,74.43
2018-06-20T09:08:23.595Z,75.70
2018-06-20T09:10:57.352Z,79.97
2018-06-20T09:13:34.266Z,83.80
2018-06-20T09:16:10.015Z,69.10
2018-06-20T09:18:43.922Z,77.17
2018-06-20T09:21:12.464Z,77.57
2018-06-20T09:23:40.984Z,88.23
2018-06-20T09:26:09.183Z,97.20
2018-06-20T09:28:37.720Z,97.90
2018-06-20T09:31:06.184Z,87.80
2018-06-20T09:33:34.715Z,81.87
2018-06-20T09:36:07.902Z,87.83
2018-06-20T09:38:36.449Z,101.93
2018-06-20T09:41:04.967Z,99.13
2018-06-20T09:43:33.587Z,102.03
2018-06-20T09:46:07.956Z,117.73
2018-06-20T09:48:36.451Z,108.13
2018-06-20T09:51:04.945Z,85.03
2018-06-20T09:53:33.493Z,113.73
2018-06-20T09:56:01.959Z,92.20
2018-06-20T09:58:30.498Z,94.97
2018-06-20T10:01:04.450Z,102.77
2018-06-20T10:04:41.305Z,96.43
2018-06-20T10:07:15.544Z,115.90
2018-06-20T10:09:56.947Z,127.87
2018-06-20T10:12:30.835Z,170.63
2018-06-20T10:14:59.326Z,176.50
2018-06-20T10:17:31.816Z,197.80
2018-06-20T10:20:05.027Z,195.80
2018-06-20T10:22:38.623Z,194.97
2018-06-20T10:25:07.135Z,350.10
2018-06-20T10:27:35.660Z,290.53
2018-06-20T10:30:04.358Z,403.43
2018-06-20T10:32:37.685Z,435.30
2018-06-20T10:35:11.103Z,408.23
2018-06-20T10:37:39.603Z,435.90
2018-06-20T10:40:08.959Z,463.90
2018-06-20T10:42:41.589Z,422.63
2018-06-20T10:45:15.364Z,502.40
2018-06-20T10:47:45.307Z,470.90
2018-06-20T10:50:14.746Z,499.33
2018-06-20T10:52:43.083Z,488.60
2018-06-20T10:55:13.022Z,500.47
2018-06-20T10:57:49.642Z,481.63
2018-06-20T11:00:26.304Z,463.93
2018-06-20T11:03:00.080Z,473.57
2018-06-20T11:05:33.908Z,462.73
2018-06-20T11:08:07.862Z,499.50
2018-06-20T11:10:41.540Z,492.17
2018-06-20T11:13:11.786Z,491.87
2018-06-20T11:15:40.323Z,454.93
2018-06-20T11:18:08.844Z,473.20
2018-06-20T11:20:42.613Z,460.30
2018-06-20T11:23:11.180Z,472.67
2018-06-20T11:25:39.724Z,466.93
2018-06-20T11:28:14.344Z,480.53
2018-06-20T11:30:44.092Z,483.07
2018-06-20T11:33:17.339Z,472.23
2018-06-20T11:35:45.848Z,496.40
2018-06-20T11:38:14.388Z,503.10
2018-06-20T11:40:42.904Z,501.73
2018-06-20T11:43:14.317Z,516.63
2018-06-20T11:45:48.258Z,480.47
2018-06-20T11:48:17.201Z,466.97
2018-06-20T11:50:45.718Z,450.17
2018-06-20T11:53:17.803Z,375.17
2018-06-20T11:55:47.348Z,337.03
2018-06-20T11:58:21.219Z,390.90
2018-06-20T12:00:54.989Z,445.27
2018-06-20T12:03:28.924Z,481.93
2018-06-20T12:06:02.700Z,417.87
2018-06-20T12:10:38.050Z,393.93
2018-06-20T12:13:11.632Z,386.43
2018-06-20T12:15:45.494Z,426.77
2018-06-20T12:18:19.238Z,447.17
2018-06-20T12:20:53.139Z,474.27
2018-06-20T12:23:27.031Z,488.70
2018-06-20T12:26:03.464Z,495.80
2018-06-20T12:28:37.225Z,483.63
2018-06-20T12:31:10.965Z,472.10
2018-06-20T12:33:49.212Z,431.03
2018-06-20T12:36:23.988Z,370.53
2018-06-20T12:39:01.281Z,327.37
2018-06-20T12:41:36.033Z,339.53
2018-06-20T12:44:10.590Z,338.90
2018-06-20T12:46:53.756Z,304.77
2018-06-20T12:49:31.849Z,175.23
2018-06-20T12:52:00.334Z,105.23
2018-06-20T12:54:28.923Z,132.77
2018-06-20T12:56:57.392Z,101.97
2018-06-20T12:59:25.920Z,115.77
2018-06-20T13:01:54.444Z,119.57
2018-06-20T13:04:27.209Z,81.97
2018-06-20T13:06:55.671Z,80.37
2018-06-20T13:09:24.229Z,86.37
2018-06-20T13:11:52.695Z,49.73
2018-06-20T13:14:21.204Z,63.80
2018-06-20T13:16:49.862Z,54.37
2018-06-20T13:19:18.379Z,81.33
2018-06-20T13:21:46.843Z,80.70
2018-06-20T13:24:15.357Z,89.10
2018-06-20T13:26:43.882Z,96.43
2018-06-20T13:29:12.415Z,86.17
2018-06-20T13:31:46.273Z,92.30
2018-06-20T13:34:24.244Z,84.43
2018-06-20T13:36:58.173Z,88.73
2018-06-20T13:39:35.600Z,115.27
2018-06-20T13:42:06.792Z,120.03
2018-06-20T13:44:38.036Z,116.93
2018-06-20T13:47:11.716Z,192.63
2018-06-20T13:49:40.264Z,283.33
2018-06-20T13:52:12.644Z,314.63
2018-06-20T13:54:41.171Z,339.40
2018-06-20T13:57:09.656Z,446.33
2018-06-20T13:59:41.822Z,447.97
2018-06-20T14:02:10.340Z,332.00
2018-06-20T14:04:38.834Z,357.00
2018-06-20T14:07:07.308Z,404.50
2018-06-20T14:09:35.816Z,384.87
2018-06-20T14:12:04.324Z,384.00
2018-06-20T14:14:32.835Z,365.70
2018-06-20T14:17:01.658Z,201.77
2018-06-20T14:19:38.766Z,199.97
2018-06-20T14:22:14.763Z,138.10
2018-06-20T14:24:44.815Z,132.10
2018-06-20T14:27:13.312Z,184.83
2018-06-20T14:29:41.842Z,265.33
2018-06-20T14:32:15.899Z,286.37
2018-06-20T14:34:52.760Z,196.73
2018-06-20T14:37:27.799Z,141.33
2018-06-20T14:40:01.689Z,228.00
2018-06-20T14:42:35.561Z,249.27
2018-06-20T14:47:13.717Z,292.27
2018-06-20T14:49:45.590Z,390.23
2018-06-20T14:52:14.101Z,431.27
2018-06-20T14:54:42.562Z,420.17
2018-06-20T14:57:11.097Z,429.67
2018-06-20T14:59:39.927Z,437.00
2018-06-20T15:02:09.051Z,427.10
2018-06-20T15:04:51.841Z,414.70
2018-06-20T15:07:23.381Z,421.93
2018-06-20T15:09:52.497Z,405.30
2018-06-20T15:12:21.040Z,390.97
2018-06-20T15:14:53.034Z,418.00
2018-06-20T15:17:26.415Z,398.47
2018-06-20T15:19:54.904Z,371.23
2018-06-20T15:22:23.524Z,317.03
2018-06-20T15:24:52.769Z,355.73
2018-06-20T15:27:27.361Z,309.67
2018-06-20T15:30:17.598Z,249.63
2018-06-20T15:32:58.306Z,252.90
2018-06-20T15:35:42.527Z,246.10
2018-06-20T15:38:32.416Z,191.23
2018-06-20T15:41:14.919Z,184.27
2018-06-20T15:44:04.190Z,127.53
2018-06-20T15:47:00.142Z,152.40
2018-06-20T15:52:51.550Z,192.37
2018-06-20T15:55:28.855Z,218.27
2018-06-20T15:58:04.818Z,261.90
2018-06-20T16:06:18.874Z,420.47
2018-06-20T16:09:05.961Z,421.53
2018-06-20T16:11:42.670Z,419.00
2018-06-20T16:14:29.914Z,427.60
2018-06-20T16:17:07.568Z,427.07
2018-06-20T16:21:51.600Z,403.17
2018-06-20T16:24:32.227Z,395.40
2018-06-20T16:27:09.632Z,422.37
2018-06-20T16:29:48.489Z,366.33
2018-06-20T16:32:30.332Z,340.97
2018-06-20T16:35:11.382Z,276.93
2018-06-20T16:37:46.586Z,173.87
2018-06-20T16:40:26.446Z,111.30
2018-06-20T16:43:11.108Z,121.20
2018-06-20T16:45:46.394Z,215.97
2018-06-20T16:48:27.157Z,226.83
2018-06-20T16:51:03.627Z,290.87
2018-06-20T16:53:37.889Z,302.13
2018-06-20T16:56:31.513Z,377.17
2018-06-20T16:59:21.237Z,401.47
2018-06-20T17:02:04.946Z,387.73
2018-06-20T17:07:23.473Z,323.43
2018-06-20T17:09:52.222Z,277.97
2018-06-20T17:12:26.089Z,209.10
2018-06-20T17:15:01.860Z,128.13
2018-06-20T17:17:35.625Z,107.63
2018-06-20T17:20:09.446Z,85.30
2018-06-20T17:22:43.357Z,81.37
2018-06-20T17:25:13.381Z,63.60
2018-06-20T17:27:41.973Z,57.87
2018-06-20T17:30:10.562Z,57.03
2018-06-20T17:32:39.061Z,56.83
2018-06-20T17:35:07.759Z,58.07
2018-06-20T17:37:40.153Z,59.50
2018-06-20T17:40:08.717Z,62.87
2018-06-20T17:42:37.223Z,58.83
2018-06-20T17:45:06.433Z,65.67
2018-06-20T17:47:35.032Z,83.23
2018-06-20T17:50:03.633Z,81.63
2018-06-20T17:52:36.617Z,88.57
2018-06-20T17:55:05.490Z,79.80
2018-06-20T17:57:34.054Z,77.00
2018-06-20T18:00:02.597Z,69.43
2018-06-20T18:02:31.181Z,68.40
2018-06-20T18:05:04.801Z,67.77
2018-06-20T18:07:41.705Z,79.17
2018-06-20T18:10:16.407Z,73.07
2018-06-20T18:12:50.714Z,72.30
2018-06-20T18:15:24.700Z,69.90
2018-06-20T18:17:55.814Z,78.63
2018-06-20T18:20:24.256Z,113.00
2018-06-20T18:22:52.480Z,132.67
2018-06-20T18:25:21.069Z,171.60
2018-06-20T18:27:49.702Z,177.33
2018-06-20T18:30:18.344Z,173.23
2018-06-20T18:32:46.890Z,181.90
2018-06-20T18:35:19.088Z,175.17
2018-06-20T18:37:47.628Z,193.67
2018-06-20T18:40:16.176Z,192.70
2018-06-20T18:42:49.406Z,126.63
2018-06-20T18:45:17.932Z,149.33
2018-06-20T18:47:55.927Z,177.17
2018-06-20T18:50:36.881Z,197.97
2018-06-20T18:53:15.591Z,239.80
2018-06-20T18:55:51.595Z,309.87
2018-06-20T18:58:38.463Z,353.80
2018-06-20T19:01:22.373Z,363.57
2018-06-20T19:04:03.573Z,341.13
2018-06-20T19:06:41.362Z,360.67
2018-06-20T19:09:24.908Z,343.17
2018-06-20T19:12:04.282Z,316.30
2018-06-20T19:14:42.544Z,337.40
2018-06-20T19:17:22.097Z,363.70
2018-06-20T19:20:06.178Z,376.07
2018-06-20T19:22:51.565Z,348.23
2018-06-20T19:25:33.853Z,350.20
2018-06-20T19:28:14.205Z,279.17
2018-06-20T19:30:56.424Z,263.03
2018-06-20T19:33:48.633Z,257.47
2018-06-20T19:36:26.885Z,245.07
2018-06-20T19:39:10.185Z,258.27
2018-06-20T19:41:53.980Z,311.23
2018-06-20T19:44:36.219Z,374.50
2018-06-20T19:47:18.743Z,466.13
2018-06-20T19:50:18.081Z,529.27
2018-06-20T19:52:48.992Z,548.40
2018-06-20T19:55:31.788Z,557.53
2018-06-20T19:58:09.735Z,576.67
2018-06-20T20:00:55.528Z,542.00
2018-06-20T20:03:30.199Z,472.10
2018-06-20T20:08:56.513Z,372.27
2018-06-20T20:11:37.677Z,303.80
2018-06-20T20:14:27.856Z,296.43
2018-06-20T20:17:06.382Z,313.57
2018-06-20T20:22:31.335Z,302.43
2018-06-20T20:25:11.016Z,359.50
2018-06-20T20:27:44.683Z,344.43
2018-06-20T20:30:25.205Z,367.40
2018-06-20T20:33:05.282Z,347.27
2018-06-20T20:35:44.853Z,334.40
2018-06-20T20:38:22.624Z,359.87
2018-06-20T20:40:57.649Z,320.43
2018-06-20T20:43:32.310Z,329.60
2018-06-20T20:46:10.359Z,321.93
2018-06-20T20:48:51.612Z,323.03
2018-06-20T20:51:36.147Z,321.73
2018-06-20T20:56:59.390Z,325.43
2018-06-20T20:59:32.406Z,297.30
2018-06-20T21:02:00.910Z,324.40
2018-06-20T21:04:29.461Z,313.80
2018-06-20T21:06:57.957Z,304.07
2018-06-20T21:09:29.722Z,290.13
2018-06-20T21:11:58.242Z,303.90
2018-06-20T21:14:27.749Z,307.80
2018-06-20T21:16:59.879Z,307.07
2018-06-20T21:19:30.118Z,423.67
2018-06-20T21:22:00.714Z,441.57
2018-06-20T21:24:31.761Z,441.43
2018-06-20T21:27:02.187Z,424.53
2018-06-20T21:29:30.728Z,412.40
2018-06-20T21:31:58.929Z,373.13
2018-06-20T21:34:28.893Z,211.97
2018-06-20T21:36:58.578Z,217.97
2018-06-20T21:39:27.460Z,203.77
2018-06-20T21:41:56.925Z,195.13
2018-06-20T21:44:25.980Z,203.20
2018-06-20T21:46:55.820Z,190.70
2018-06-20T21:49:26.201Z,204.40
2018-06-20T21:51:54.700Z,214.63
2018-06-20T21:54:23.241Z,227.87
2018-06-20T21:56:51.853Z,306.57
2018-06-20T21:59:20.382Z,312.63
2018-06-20T22:01:48.917Z,334.20
2018-06-20T22:04:17.466Z,363.87
2018-06-20T22:06:46.015Z,384.73
2018-06-20T22:09:14.510Z,429.17
2018-06-20T22:11:43.037Z,416.53
2018-06-20T22:14:11.580Z,464.73
2018-06-20T22:16:40.127Z,441.60
2018-06-20T22:19:08.805Z,414.43
2018-06-20T22:21:37.536Z,490.23
2018-06-20T22:24:06.381Z,506.97
2018-06-20T22:26:34.963Z,494.63
2018-06-20T22:29:03.532Z,492.40
2018-06-20T22:31:32.056Z,496.27
2018-06-20T22:34:00.555Z,470.33
2018-06-20T22:36:29.106Z,434.40
2018-06-20T22:38:57.608Z,455.00
2018-06-20T22:41:26.212Z,433.60
2018-06-20T22:43:54.693Z,441.80
2018-06-20T22:46:23.189Z,433.87
2018-06-20T22:48:51.731Z,413.77
2018-06-20T22:51:20.250Z,417.07
2018-06-20T22:53:48.825Z,369.87
2018-06-20T22:56:17.313Z,369.07
2018-06-20T22:58:45.821Z,375.67
2018-06-20T23:01:14.390Z,353.23
2018-06-20T23:03:42.910Z,382.93
2018-06-20T23:06:11.453Z,370.90
2018-06-20T23:08:39.962Z,351.67
2018-06-20T23:11:08.513Z,339.50
2018-06-20T23:13:37.013Z,367.90
2018-06-20T23:16:05.549Z,353.27
2018-06-20T23:18:34.057Z,359.53
2018-06-20T23:21:02.591Z,353.80
2018-06-20T23:23:31.098Z,345.90
2018-06-20T23:25:59.675Z,381.33
2018-06-20T23:28:28.200Z,375.63
2018-06-20T23:30:56.706Z,343.40
2018-06-20T23:33:25.250Z,384.67
2018-06-20T23:35:53.790Z,341.00
2018-06-20T23:38:22.321Z,350.80
2018-06-20T23:40:50.856Z,364.50
2018-06-20T23:43:19.380Z,351.97
2018-06-20T23:45:47.875Z,352.40
2018-06-20T23:48:16.095Z,368.47
2018-06-20T23:50:44.634Z,345.67
2018-06-20T23:53:12.857Z,322.77
2018-06-20T23:55:41.380Z,332.30
2018-06-20T23:58:10.431Z,326.03
